Aérodrome :
LOGIN :

S'inscrire | Disclaimer

   EN    FR    IT 

 










Légende :    VFR   VFR Marginal   IFR   IFR Intensif   IFR Très Intensif
Visi : 
Plafond : 
>= 8 km
>= 3000ft
5 à 8 km
1000 à 3000 ft
1500m à 5 km
500 à 1000 ft
800 à 1500m
200 à 500 ft
< 800m
< 200 ft
Symboles :   Orages  Brouillard  Fortes neiges  Fortes précipitations  Vent > 20 kt
SIGMETs :   Divers  Orages  Givrage  Turbulence  Onde Orograph.  Cendres Volcan.






- Altitude de l'aérodrome : 9 ft
- Code IATA : MIR


DTMB - Habib Bourguliba Int. Monastir

DERNIER METAR :
  • 021200Z 04006KT 360V070 9999 FEW033 23/16 Q1015

METARs EXPIRÉS :
  • 021130Z 02007KT 340V050 CAVOK 23/17 Q1015
  • 021100Z 02008KT CAVOK 23/17 Q1016
  • 021030Z 02008KT 9999 SCT033 23/17 Q1016
  • 021000Z 01009KT 9999 SCT033 22/18 Q1016
  • 020930Z 01008KT 9999 SCT033 23/18 Q1016

TAF TAF DTMB
Valide du 02 à 12h jusqu'au 03 à 12h UTC


021100Z 0212/0312 02008KT CAVOK
BECMG 0213/0215 09012KT 9999 FEW033
BECMG 0219/0221 09005KT
BECMG 0223/0301 VRB03KT
BECMG 0307/0309 12008KT



MET'MAP, la Météo Aéronautique d'un coup d'oeil ! - Copyright ORBIFLY Décembre 2007 - Disclaimer

ORBIFLY MET'MAP TEAM :

Programmation & Développement : Alexandra Zaïnal
Sur une idée originale de : Baudouin d'Aumeries
Assistance à la programmation : Marc-Olivier Méhu
Soutien technique & logistique : Manuel Goepfert

Contact : metmap@orbifly.com




SOURCES & CREDITS :

   NOAA